sensor_id;sensor_type;location;lat;lon;timestamp;pressure;altitude;pressure_sealevel;temperature;humidity
10940;BME280;5522;42.696;23.494;2023-08-17T00:00:08;53916.13;;;-139.68;100.00
10940;BME280;5522;42.696;23.494;2023-08-17T00:02:38;53940.25;;;-139.68;100.00
10940;BME280;5522;42.696;23.494;2023-08-17T00:05:05;53900.06;;;-139.68;100.00
10940;BME280;5522;42.696;23.494;2023-08-17T00:07:32;53926.19;;;-139.68;100.00
10940;BME280;5522;42.696;23.494;2023-08-17T00:09:59;53944.28;;;-139.68;100.00
10940;BME280;5522;42.696;23.494;2023-08-17T00:12:28;53912.13;;;-139.68;100.00
10940;BME280;5522;42.696;23.494;2023-08-17T00:14:55;53944.28;;;-139.68;100.00
10940;BME280;5522;42.696;23.494;2023-08-17T00:17:22;53928.19;;;-139.68;100.00
10940;BME280;5522;42.696;23.494;2023-08-17T00:19:49;53918.16;;;-139.68;100.00
10940;BME280;5522;42.696;23.494;2023-08-17T00:22:19;53924.16;;;-139.68;100.00
10940;BME280;5522;42.696;23.494;2023-08-17T00:24:46;53926.19;;;-139.68;100.00
10940;BME280;5522;42.696;23.494;2023-08-17T00:27:13;53922.16;;;-139.68;100.00
10940;BME280;5522;42.696;23.494;2023-08-17T00:29:41;53932.22;;;-139.68;100.00
10940;BME280;5522;42.696;23.494;2023-08-17T00:32:08;53928.19;;;-139.68;100.00
10940;BME280;5522;42.696;23.494;2023-08-17T00:34:35;53896.03;;;-139.68;100.00
10940;BME280;5522;42.696;23.494;2023-08-17T00:37:02;53926.19;;;-139.68;100.00
10940;BME280;5522;42.696;23.494;2023-08-17T00:39:29;53892.00;;;-139.68;100.00
10940;BME280;5522;42.696;23.494;2023-08-17T00:41:56;53879.94;;;-139.68;100.00
10940;BME280;5522;42.696;23.494;2023-08-17T00:44:23;53900.06;;;-139.68;100.00
10940;BME280;5522;42.696;23.494;2023-08-17T00:46:51;53934.22;;;-139.68;100.00
10940;BME280;5522;42.696;23.494;2023-08-17T00:49:18;53920.16;;;-139.68;100.00
10940;BME280;5522;42.696;23.494;2023-08-17T00:51:45;53932.22;;;-139.68;100.00
10940;BME280;5522;42.696;23.494;2023-08-17T00:54:12;53910.09;;;-139.68;100.00
10940;BME280;5522;42.696;23.494;2023-08-17T00:56:40;53890.00;;;-139.68;100.00
10940;BME280;5522;42.696;23.494;2023-08-17T00:59:07;53904.06;;;-139.68;100.00
10940;BME280;5522;42.696;23.494;2023-08-17T01:06:51;53926.19;;;-139.68;100.00
10940;BME280;5522;42.696;23.494;2023-08-17T01:09:19;53890.00;;;-139.68;100.00
10940;BME280;5522;42.696;23.494;2023-08-17T01:11:49;53904.06;;;-139.68;100.00
10940;BME280;5522;42.696;23.494;2023-08-17T01:14:23;53946.28;;;-139.68;100.00
10940;BME280;5522;42.696;23.494;2023-08-17T01:16:58;53928.19;;;-139.68;100.00
10940;BME280;5522;42.696;23.494;2023-08-17T01:19:27;53916.13;;;-139.68;100.00
10940;BME280;5522;42.696;23.494;2023-08-17T01:22:00;53892.00;;;-139.68;100.00
10940;BME280;5522;42.696;23.494;2023-08-17T01:24:28;53926.19;;;-139.68;100.00
10940;BME280;5522;42.696;23.494;2023-08-17T01:26:55;53914.13;;;-139.68;100.00
10940;BME280;5522;42.696;23.494;2023-08-17T01:29:22;53928.19;;;-139.68;100.00
10940;BME280;5522;42.696;23.494;2023-08-17T01:31:54;53926.19;;;-139.68;100.00
10940;BME280;5522;42.696;23.494;2023-08-17T01:34:27;53916.13;;;-139.68;100.00
10940;BME280;5522;42.696;23.494;2023-08-17T01:36:58;53883.97;;;-139.68;100.00
10940;BME280;5522;42.696;23.494;2023-08-17T01:39:34;53906.06;;;-139.68;100.00
10940;BME280;5522;42.696;23.494;2023-08-17T01:42:02;53946.28;;;-139.68;100.00
10940;BME280;5522;42.696;23.494;2023-08-17T01:44:30;53924.16;;;-139.68;100.00
10940;BME280;5522;42.696;23.494;2023-08-17T01:46:57;53896.03;;;-139.68;100.00
10940;BME280;5522;42.696;23.494;2023-08-17T01:49:24;53940.25;;;-139.68;100.00
10940;BME280;5522;42.696;23.494;2023-08-17T01:51:51;53888.00;;;-139.68;100.00
10940;BME280;5522;42.696;23.494;2023-08-17T01:54:18;53900.06;;;-139.68;100.00
10940;BME280;5522;42.696;23.494;2023-08-17T01:56:47;53908.09;;;-139.68;100.00
10940;BME280;5522;42.696;23.494;2023-08-17T01:59:14;53934.22;;;-139.68;100.00
10940;BME280;5522;42.696;23.494;2023-08-17T02:01:40;53883.97;;;-139.68;100.00
10940;BME280;5522;42.696;23.494;2023-08-17T02:04:07;53896.03;;;-139.68;100.00
10940;BME280;5522;42.696;23.494;2023-08-17T02:06:34;53932.22;;;-139.68;100.00
10940;BME280;5522;42.696;23.494;2023-08-17T02:09:01;53932.22;;;-139.68;100.00
10940;BME280;5522;42.696;23.494;2023-08-17T02:11:28;53898.03;;;-139.68;100.00
10940;BME280;5522;42.696;23.494;2023-08-17T02:13:56;53950.31;;;-139.68;100.00
10940;BME280;5522;42.696;23.494;2023-08-17T02:16:23;53924.16;;;-139.68;100.00
10940;BME280;5522;42.696;23.494;2023-08-17T02:18:49;53879.94;;;-139.68;100.00
10940;BME280;5522;42.696;23.494;2023-08-17T02:21:16;53926.19;;;-139.68;100.00
10940;BME280;5522;42.696;23.494;2023-08-17T02:23:43;53914.13;;;-139.68;100.00
10940;BME280;5522;42.696;23.494;2023-08-17T02:26:10;53904.06;;;-139.68;100.00
10940;BME280;5522;42.696;23.494;2023-08-17T02:28:37;53912.13;;;-139.68;100.00
10940;BME280;5522;42.696;23.494;2023-08-17T02:31:05;53908.09;;;-139.68;100.00
10940;BME280;5522;42.696;23.494;2023-08-17T02:33:32;53936.22;;;-139.68;100.00
10940;BME280;5522;42.696;23.494;2023-08-17T02:36:00;53881.97;;;-139.68;100.00
10940;BME280;5522;42.696;23.494;2023-08-17T02:38:27;53944.28;;;-139.68;100.00
10940;BME280;5522;42.696;23.494;2023-08-17T02:40:53;53908.09;;;-139.68;100.00
10940;BME280;5522;42.696;23.494;2023-08-17T02:43:20;53906.06;;;-139.68;100.00
10940;BME280;5522;42.696;23.494;2023-08-17T02:45:47;53936.22;;;-139.68;100.00
10940;BME280;5522;42.696;23.494;2023-08-17T02:48:15;53940.25;;;-139.68;100.00
10940;BME280;5522;42.696;23.494;2023-08-17T02:50:42;53879.94;;;-139.68;100.00
10940;BME280;5522;42.696;23.494;2023-08-17T02:53:09;53906.06;;;-139.68;100.00
10940;BME280;5522;42.696;23.494;2023-08-17T02:55:36;53885.97;;;-139.68;100.00
10940;BME280;5522;42.696;23.494;2023-08-17T02:58:03;53892.00;;;-139.68;100.00
10940;BME280;5522;42.696;23.494;2023-08-17T03:00:30;53908.09;;;-139.68;100.00
10940;BME280;5522;42.696;23.494;2023-08-17T03:02:57;53930.22;;;-139.68;100.00
10940;BME280;5522;42.696;23.494;2023-08-17T03:05:25;53890.00;;;-139.68;100.00
10940;BME280;5522;42.696;23.494;2023-08-17T03:07:52;53908.09;;;-139.68;100.00
10940;BME280;5522;42.696;23.494;2023-08-17T03:10:18;53918.16;;;-139.68;100.00
10940;BME280;5522;42.696;23.494;2023-08-17T03:12:45;53890.00;;;-139.68;100.00
10940;BME280;5522;42.696;23.494;2023-08-17T03:15:12;53904.06;;;-139.68;100.00
10940;BME280;5522;42.696;23.494;2023-08-17T03:17:39;53910.09;;;-139.68;100.00
10940;BME280;5522;42.696;23.494;2023-08-17T03:20:07;53910.09;;;-139.68;100.00
10940;BME280;5522;42.696;23.494;2023-08-17T03:22:35;53924.16;;;-139.68;100.00
10940;BME280;5522;42.696;23.494;2023-08-17T03:25:03;53908.09;;;-139.68;100.00
10940;BME280;5522;42.696;23.494;2023-08-17T03:27:29;53918.16;;;-139.68;100.00
10940;BME280;5522;42.696;23.494;2023-08-17T03:29:56;53926.19;;;-139.68;100.00
10940;BME280;5522;42.696;23.494;2023-08-17T03:32:23;53883.97;;;-139.68;100.00
10940;BME280;5522;42.696;23.494;2023-08-17T03:34:50;53879.94;;;-139.68;100.00
10940;BME280;5522;42.696;23.494;2023-08-17T03:37:17;53896.03;;;-139.68;100.00
10940;BME280;5522;42.696;23.494;2023-08-17T03:39:45;53930.22;;;-139.68;100.00
10940;BME280;5522;42.696;23.494;2023-08-17T03:42:13;53908.09;;;-139.68;100.00
10940;BME280;5522;42.696;23.494;2023-08-17T03:44:40;53896.03;;;-139.68;100.00
10940;BME280;5522;42.696;23.494;2023-08-17T03:47:07;53920.16;;;-139.68;100.00
10940;BME280;5522;42.696;23.494;2023-08-17T03:49:33;53940.25;;;-139.68;100.00
10940;BME280;5522;42.696;23.494;2023-08-17T03:52:00;53881.97;;;-139.68;100.00
10940;BME280;5522;42.696;23.494;2023-08-17T03:54:27;53885.97;;;-139.68;100.00
10940;BME280;5522;42.696;23.494;2023-08-17T03:56:58;53928.19;;;-139.68;100.00
10940;BME280;5522;42.696;23.494;2023-08-17T03:59:25;53896.03;;;-139.68;100.00
10940;BME280;5522;42.696;23.494;2023-08-17T04:01:52;53952.31;;;-139.68;100.00
10940;BME280;5522;42.696;23.494;2023-08-17T04:04:19;53928.19;;;-139.68;100.00
10940;BME280;5522;42.696;23.494;2023-08-17T04:06:46;53952.31;;;-139.68;100.00
10940;BME280;5522;42.696;23.494;2023-08-17T04:09:13;53888.00;;;-139.68;100.00
10940;BME280;5522;42.696;23.494;2023-08-17T04:11:39;53914.13;;;-139.68;100.00
10940;BME280;5522;42.696;23.494;2023-08-17T04:14:08;53900.06;;;-139.68;100.00
10940;BME280;5522;42.696;23.494;2023-08-17T04:16:35;53908.09;;;-139.68;100.00
10940;BME280;5522;42.696;23.494;2023-08-17T04:19:02;53896.03;;;-139.68;100.00
10940;BME280;5522;42.696;23.494;2023-08-17T04:21:29;53892.00;;;-139.68;100.00
10940;BME280;5522;42.696;23.494;2023-08-17T04:23:55;53912.13;;;-139.68;100.00
10940;BME280;5522;42.696;23.494;2023-08-17T04:26:22;53936.22;;;-139.68;100.00
10940;BME280;5522;42.696;23.494;2023-08-17T04:28:49;53888.00;;;-139.68;100.00
10940;BME280;5522;42.696;23.494;2023-08-17T04:31:18;53888.00;;;-139.68;100.00
10940;BME280;5522;42.696;23.494;2023-08-17T04:33:45;53900.06;;;-139.68;99.38
10940;BME280;5522;42.696;23.494;2023-08-17T04:36:12;53906.06;;;-139.68;95.03
10940;BME280;5522;42.696;23.494;2023-08-17T04:38:38;53932.22;;;-139.68;90.17
10940;BME280;5522;42.696;23.494;2023-08-17T04:41:05;53918.16;;;-139.68;85.17
10940;BME280;5522;42.696;23.494;2023-08-17T04:43:33;53926.19;;;-139.68;80.15
10940;BME280;5522;42.696;23.494;2023-08-17T04:45:59;53918.16;;;-139.68;75.85
10940;BME280;5522;42.696;23.494;2023-08-17T04:48:28;53924.16;;;-139.68;70.20
10940;BME280;5522;42.696;23.494;2023-08-17T04:50:54;53900.06;;;-139.68;64.23
10940;BME280;5522;42.696;23.494;2023-08-17T04:53:22;53912.13;;;-139.68;62.96
10940;BME280;5522;42.696;23.494;2023-08-17T04:55:48;53922.16;;;-139.68;61.33
10940;BME280;5522;42.696;23.494;2023-08-17T04:58:15;53926.19;;;-139.68;58.44
10940;BME280;5522;42.696;23.494;2023-08-17T05:00:42;53902.06;;;-139.68;55.59
10940;BME280;5522;42.696;23.494;2023-08-17T05:03:09;53892.00;;;-139.68;54.79
10940;BME280;5522;42.696;23.494;2023-08-17T05:05:37;53908.09;;;-139.68;53.25
10940;BME280;5522;42.696;23.494;2023-08-17T05:08:04;53910.09;;;-139.68;51.86
10940;BME280;5522;42.696;23.494;2023-08-17T05:10:31;53934.22;;;-139.68;50.42
10940;BME280;5522;42.696;23.494;2023-08-17T05:12:58;53883.97;;;-139.68;48.38
10940;BME280;5522;42.696;23.494;2023-08-17T05:15:25;53875.94;;;-139.68;46.99
10940;BME280;5522;42.696;23.494;2023-08-17T05:17:52;53871.91;;;-139.68;46.52
10940;BME280;5522;42.696;23.494;2023-08-17T05:20:19;53900.06;;;-139.68;45.14
10940;BME280;5522;42.696;23.494;2023-08-17T05:22:48;53928.19;;;-139.68;44.81
10940;BME280;5522;42.696;23.494;2023-08-17T05:25:15;53908.09;;;-139.68;42.35
10940;BME280;5522;42.696;23.494;2023-08-17T05:27:42;53881.97;;;-139.68;39.46
10940;BME280;5522;42.696;23.494;2023-08-17T05:30:09;53904.06;;;-139.68;40.04
10940;BME280;5522;42.696;23.494;2023-08-17T05:32:36;53875.94;;;-139.68;39.66
10940;BME280;5522;42.696;23.494;2023-08-17T05:35:03;53934.22;;;-139.68;39.41
10940;BME280;5522;42.696;23.494;2023-08-17T05:37:32;53881.97;;;-139.68;39.59
10940;BME280;5522;42.696;23.494;2023-08-17T05:40:00;53908.09;;;-139.68;37.96
10940;BME280;5522;42.696;23.494;2023-08-17T05:42:27;53869.91;;;-139.68;36.81
10940;BME280;5522;42.696;23.494;2023-08-17T05:44:54;53908.09;;;-139.68;37.59
10940;BME280;5522;42.696;23.494;2023-08-17T05:47:20;53928.19;;;-139.68;37.93
10940;BME280;5522;42.696;23.494;2023-08-17T05:49:47;53920.16;;;-139.68;36.75
10940;BME280;5522;42.696;23.494;2023-08-17T05:52:14;53875.94;;;-139.68;35.74
10940;BME280;5522;42.696;23.494;2023-08-17T05:54:41;53916.13;;;-139.68;35.21
10940;BME280;5522;42.696;23.494;2023-08-17T05:57:09;53922.16;;;-139.68;35.60
10940;BME280;5522;42.696;23.494;2023-08-17T05:59:36;53908.09;;;-139.68;36.42
10940;BME280;5522;42.696;23.494;2023-08-17T06:02:03;53881.97;;;-139.68;37.73
10940;BME280;5522;42.696;23.494;2023-08-17T06:04:30;53928.19;;;-139.68;37.97
10940;BME280;5522;42.696;23.494;2023-08-17T06:06:57;53896.03;;;-139.68;38.05
10940;BME280;5522;42.696;23.494;2023-08-17T06:09:24;53928.19;;;-139.68;37.70
10940;BME280;5522;42.696;23.494;2023-08-17T06:11:51;53892.00;;;-139.68;37.09
10940;BME280;5522;42.696;23.494;2023-08-17T06:14:19;53960.38;;;-139.68;36.75
10940;BME280;5522;42.696;23.494;2023-08-17T06:16:46;53892.00;;;-139.68;36.13
10940;BME280;5522;42.696;23.494;2023-08-17T06:19:13;53855.81;;;-139.68;34.62
10940;BME280;5522;42.696;23.494;2023-08-17T06:21:39;53914.13;;;-139.68;34.42
10940;BME280;5522;42.696;23.494;2023-08-17T06:24:06;53867.88;;;-139.68;32.98
10940;BME280;5522;42.696;23.494;2023-08-17T06:26:33;53902.06;;;-139.68;32.85
10940;BME280;5522;42.696;23.494;2023-08-17T06:29:00;53908.09;;;-139.68;32.01
10940;BME280;5522;42.696;23.494;2023-08-17T06:31:28;53875.94;;;-139.68;32.30
10940;BME280;5522;42.696;23.494;2023-08-17T06:33:55;53908.09;;;-139.68;31.14
10940;BME280;5522;42.696;23.494;2023-08-17T06:36:22;53904.06;;;-139.68;31.41
10940;BME280;5522;42.696;23.494;2023-08-17T06:38:49;53892.00;;;-139.68;32.03
10940;BME280;5522;42.696;23.494;2023-08-17T06:41:16;53890.00;;;-139.68;30.83
10940;BME280;5522;42.696;23.494;2023-08-17T06:43:43;53896.03;;;-139.68;30.61
10940;BME280;5522;42.696;23.494;2023-08-17T06:46:10;53883.97;;;-139.68;32.01
10940;BME280;5522;42.696;23.494;2023-08-17T06:48:38;53883.97;;;-139.68;30.47
10940;BME280;5522;42.696;23.494;2023-08-17T06:51:05;53877.94;;;-139.68;30.74
10940;BME280;5522;42.696;23.494;2023-08-17T06:53:32;53902.06;;;-139.68;31.18
10940;BME280;5522;42.696;23.494;2023-08-17T06:55:59;53875.94;;;-139.68;30.90
10940;BME280;5522;42.696;23.494;2023-08-17T06:58:25;53851.81;;;-139.68;31.78
10940;BME280;5522;42.696;23.494;2023-08-17T07:00:52;53900.06;;;-139.68;30.82
10940;BME280;5522;42.696;23.494;2023-08-17T07:03:19;53867.88;;;-139.68;30.08
10940;BME280;5522;42.696;23.494;2023-08-17T07:05:47;53875.94;;;-139.68;30.12
10940;BME280;5522;42.696;23.494;2023-08-17T07:08:14;53875.94;;;-139.68;31.46
10940;BME280;5522;42.696;23.494;2023-08-17T07:10:42;53879.94;;;-139.68;30.50
10940;BME280;5522;42.696;23.494;2023-08-17T07:13:09;53861.84;;;-139.68;29.54
10940;BME280;5522;42.696;23.494;2023-08-17T07:15:36;53892.00;;;-139.68;28.94
10940;BME280;5522;42.696;23.494;2023-08-17T07:18:03;53873.91;;;-139.68;29.21
10940;BME280;5522;42.696;23.494;2023-08-17T07:20:30;53831.69;;;-139.68;29.39
10940;BME280;5522;42.696;23.494;2023-08-17T07:22:58;53902.06;;;-139.68;29.08
10940;BME280;5522;42.696;23.494;2023-08-17T07:25:25;53883.97;;;-139.68;27.98
10940;BME280;5522;42.696;23.494;2023-08-17T07:27:52;53863.88;;;-139.68;27.93
10940;BME280;5522;42.696;23.494;2023-08-17T07:30:19;53879.94;;;-139.68;29.32
10940;BME280;5522;42.696;23.494;2023-08-17T07:32:46;53883.97;;;-139.68;28.24
10940;BME280;5522;42.696;23.494;2023-08-17T07:35:13;53869.91;;;-139.68;28.13
10940;BME280;5522;42.696;23.494;2023-08-17T07:37:40;53871.91;;;-139.68;28.64
10940;BME280;5522;42.696;23.494;2023-08-17T07:40:09;53873.91;;;-139.68;29.00
10940;BME280;5522;42.696;23.494;2023-08-17T07:42:36;53875.94;;;-139.68;28.57
10940;BME280;5522;42.696;23.494;2023-08-17T07:45:04;53845.78;;;-139.68;28.13
10940;BME280;5522;42.696;23.494;2023-08-17T07:47:31;53867.88;;;-139.68;27.54
10940;BME280;5522;42.696;23.494;2023-08-17T07:49:58;53865.88;;;-139.68;28.03
10940;BME280;5522;42.696;23.494;2023-08-17T07:52:25;53843.75;;;-139.68;28.30
10940;BME280;5522;42.696;23.494;2023-08-17T07:54:52;53883.97;;;-139.68;28.25
10940;BME280;5522;42.696;23.494;2023-08-17T07:57:20;53869.91;;;-139.68;26.95
10940;BME280;5522;42.696;23.494;2023-08-17T07:59:47;53853.81;;;-139.68;27.71
10940;BME280;5522;42.696;23.494;2023-08-17T08:02:14;53835.72;;;-139.68;26.92
10940;BME280;5522;42.696;23.494;2023-08-17T08:04:41;53859.84;;;-139.68;26.88
10940;BME280;5522;42.696;23.494;2023-08-17T08:07:08;53875.94;;;-139.68;27.29
10940;BME280;5522;42.696;23.494;2023-08-17T08:09:34;53898.03;;;-139.68;27.66
10940;BME280;5522;42.696;23.494;2023-08-17T08:12:01;53888.00;;;-139.68;28.17
10940;BME280;5522;42.696;23.494;2023-08-17T08:14:30;53920.16;;;-139.68;28.63
10940;BME280;5522;42.696;23.494;2023-08-17T08:16:56;53902.06;;;-139.68;28.42
10940;BME280;5522;42.696;23.494;2023-08-17T08:19:23;53936.22;;;-139.68;28.64
10940;BME280;5522;42.696;23.494;2023-08-17T08:21:50;53908.09;;;-139.68;28.49
10940;BME280;5522;42.696;23.494;2023-08-17T08:24:17;53875.94;;;-139.68;28.05
10940;BME280;5522;42.696;23.494;2023-08-17T08:26:44;53928.19;;;-139.68;27.50
10940;BME280;5522;42.696;23.494;2023-08-17T08:29:11;53900.06;;;-139.68;28.25
10940;BME280;5522;42.696;23.494;2023-08-17T08:31:39;53924.16;;;-139.68;27.34
10940;BME280;5522;42.696;23.494;2023-08-17T08:34:06;53900.06;;;-139.68;28.38
10940;BME280;5522;42.696;23.494;2023-08-17T08:36:32;53902.06;;;-139.68;27.60
10940;BME280;5522;42.696;23.494;2023-08-17T08:38:59;53892.00;;;-139.68;27.71
10940;BME280;5522;42.696;23.494;2023-08-17T08:41:26;53871.91;;;-139.68;27.99
10940;BME280;5522;42.696;23.494;2023-08-17T08:43:53;53914.13;;;-139.68;26.97
10940;BME280;5522;42.696;23.494;2023-08-17T08:46:21;53900.06;;;-139.68;27.81
10940;BME280;5522;42.696;23.494;2023-08-17T08:48:52;53861.84;;;-139.68;27.93
10940;BME280;5522;42.696;23.494;2023-08-17T08:51:25;53928.19;;;-139.68;27.86
10940;BME280;5522;42.696;23.494;2023-08-17T08:54:00;53863.88;;;-139.68;28.20
10940;BME280;5522;42.696;23.494;2023-08-17T08:56:31;53879.94;;;-139.68;26.83
10940;BME280;5522;42.696;23.494;2023-08-17T08:59:01;53857.84;;;-139.68;25.79
10940;BME280;5522;42.696;23.494;2023-08-17T09:01:30;53896.03;;;-139.68;25.63
10940;BME280;5522;42.696;23.494;2023-08-17T09:04:00;53883.97;;;-139.68;26.76
10940;BME280;5522;42.696;23.494;2023-08-17T09:06:29;53873.91;;;-139.68;26.89
10940;BME280;5522;42.696;23.494;2023-08-17T09:08:57;53859.84;;;-139.68;26.45
10940;BME280;5522;42.696;23.494;2023-08-17T09:11:25;53865.88;;;-139.68;26.64
10940;BME280;5522;42.696;23.494;2023-08-17T09:13:53;53851.81;;;-139.68;25.94
10940;BME280;5522;42.696;23.494;2023-08-17T09:16:21;53877.94;;;-139.68;26.36
10940;BME280;5522;42.696;23.494;2023-08-17T09:18:48;53892.00;;;-139.68;26.82
10940;BME280;5522;42.696;23.494;2023-08-17T09:21:25;53855.81;;;-139.68;26.67
10940;BME280;5522;42.696;23.494;2023-08-17T09:23:52;53914.13;;;-139.68;26.55
10940;BME280;5522;42.696;23.494;2023-08-17T09:26:20;53883.97;;;-139.68;25.56
10940;BME280;5522;42.696;23.494;2023-08-17T09:28:49;53881.97;;;-139.68;25.02
10940;BME280;5522;42.696;23.494;2023-08-17T09:31:16;53837.72;;;-139.68;25.19
10940;BME280;5522;42.696;23.494;2023-08-17T09:33:43;53871.91;;;-139.68;27.15
10940;BME280;5522;42.696;23.494;2023-08-17T09:36:11;53914.13;;;-139.68;27.98
10940;BME280;5522;42.696;23.494;2023-08-17T09:38:40;53890.00;;;-139.68;28.54
10940;BME280;5522;42.696;23.494;2023-08-17T09:41:07;53904.06;;;-139.68;28.21
10940;BME280;5522;42.696;23.494;2023-08-17T09:43:36;53873.91;;;-139.68;28.72
10940;BME280;5522;42.696;23.494;2023-08-17T09:46:05;53885.97;;;-139.68;27.98
10940;BME280;5522;42.696;23.494;2023-08-17T09:48:34;53892.00;;;-139.68;26.83
10940;BME280;5522;42.696;23.494;2023-08-17T09:51:03;53883.97;;;-139.68;25.97
10940;BME280;5522;42.696;23.494;2023-08-17T09:53:35;53871.91;;;-139.68;26.31
10940;BME280;5522;42.696;23.494;2023-08-17T09:56:04;53879.94;;;-139.68;26.72
10940;BME280;5522;42.696;23.494;2023-08-17T09:58:32;53896.03;;;-139.68;27.49
10940;BME280;5522;42.696;23.494;2023-08-17T10:01:02;53885.97;;;-139.68;26.49
10940;BME280;5522;42.696;23.494;2023-08-17T10:03:32;53879.94;;;-139.68;26.70
10940;BME280;5522;42.696;23.494;2023-08-17T10:06:03;53902.06;;;-139.68;26.59
10940;BME280;5522;42.696;23.494;2023-08-17T10:08:31;53857.84;;;-139.68;26.62
10940;BME280;5522;42.696;23.494;2023-08-17T10:11:03;53843.75;;;-139.68;26.47
10940;BME280;5522;42.696;23.494;2023-08-17T10:13:35;53896.03;;;-139.68;26.07
10940;BME280;5522;42.696;23.494;2023-08-17T10:16:10;53908.09;;;-139.68;26.83
10940;BME280;5522;42.696;23.494;2023-08-17T10:18:44;53900.06;;;-139.68;27.00
10940;BME280;5522;42.696;23.494;2023-08-17T10:21:15;53898.03;;;-139.68;29.49
10940;BME280;5522;42.696;23.494;2023-08-17T10:23:45;53885.97;;;-139.68;29.80
10940;BME280;5522;42.696;23.494;2023-08-17T10:26:14;53888.00;;;-139.68;31.23
10940;BME280;5522;42.696;23.494;2023-08-17T10:28:41;53920.16;;;-139.68;32.52
10940;BME280;5522;42.696;23.494;2023-08-17T10:31:09;53940.25;;;-139.68;32.77
10940;BME280;5522;42.696;23.494;2023-08-17T10:33:37;53920.16;;;-139.68;33.33
10940;BME280;5522;42.696;23.494;2023-08-17T10:36:07;53914.13;;;-139.68;31.95
10940;BME280;5522;42.696;23.494;2023-08-17T10:38:34;53908.09;;;-139.68;31.88
10940;BME280;5522;42.696;23.494;2023-08-17T10:41:08;53885.97;;;-139.68;32.15
10940;BME280;5522;42.696;23.494;2023-08-17T10:43:53;53906.06;;;-139.68;32.25
10940;BME280;5522;42.696;23.494;2023-08-17T10:46:20;53916.13;;;-139.68;31.41
10940;BME280;5522;42.696;23.494;2023-08-17T10:48:46;53918.16;;;-139.68;32.15
10940;BME280;5522;42.696;23.494;2023-08-17T10:51:15;53898.03;;;-139.68;32.65
10940;BME280;5522;42.696;23.494;2023-08-17T10:53:43;53881.97;;;-139.68;33.52
10940;BME280;5522;42.696;23.494;2023-08-17T10:56:12;53926.19;;;-139.68;32.95
10940;BME280;5522;42.696;23.494;2023-08-17T10:58:42;53875.94;;;-139.68;31.28
10940;BME280;5522;42.696;23.494;2023-08-17T11:01:09;53932.22;;;-139.68;32.58
10940;BME280;5522;42.696;23.494;2023-08-17T11:03:36;53904.06;;;-139.68;32.66
10940;BME280;5522;42.696;23.494;2023-08-17T11:06:24;53906.06;;;-139.68;31.36
10940;BME280;5522;42.696;23.494;2023-08-17T11:08:52;53922.16;;;-139.68;32.76
10940;BME280;5522;42.696;23.494;2023-08-17T11:11:20;53890.00;;;-139.68;32.88
10940;BME280;5522;42.696;23.494;2023-08-17T11:13:50;53906.06;;;-139.68;31.95
10940;BME280;5522;42.696;23.494;2023-08-17T11:16:18;53898.03;;;-139.68;32.89
10940;BME280;5522;42.696;23.494;2023-08-17T11:18:46;53924.16;;;-139.68;32.55
10940;BME280;5522;42.696;23.494;2023-08-17T11:21:14;53916.13;;;-139.68;31.48
10940;BME280;5522;42.696;23.494;2023-08-17T11:23:41;53924.16;;;-139.68;31.92
10940;BME280;5522;42.696;23.494;2023-08-17T11:26:08;53930.22;;;-139.68;32.25
10940;BME280;5522;42.696;23.494;2023-08-17T11:28:35;53930.22;;;-139.68;32.17
10940;BME280;5522;42.696;23.494;2023-08-17T11:31:06;53892.00;;;-139.68;33.58
10940;BME280;5522;42.696;23.494;2023-08-17T11:33:35;53902.06;;;-139.68;33.48
10940;BME280;5522;42.696;23.494;2023-08-17T11:36:04;53924.16;;;-139.68;33.87
10940;BME280;5522;42.696;23.494;2023-08-17T11:38:32;53898.03;;;-139.68;35.78
10940;BME280;5522;42.696;23.494;2023-08-17T11:40:59;53906.06;;;-139.68;36.70
10940;BME280;5522;42.696;23.494;2023-08-17T11:43:28;53936.22;;;-139.68;36.65
10940;BME280;5522;42.696;23.494;2023-08-17T11:45:55;53898.03;;;-139.68;37.55
10940;BME280;5522;42.696;23.494;2023-08-17T11:48:24;53924.16;;;-139.68;36.95
10940;BME280;5522;42.696;23.494;2023-08-17T11:50:51;53940.25;;;-139.68;38.96
10940;BME280;5522;42.696;23.494;2023-08-17T11:53:18;53966.38;;;-139.68;36.40
10940;BME280;5522;42.696;23.494;2023-08-17T11:55:45;53940.25;;;-139.68;36.87
10940;BME280;5522;42.696;23.494;2023-08-17T11:58:12;53883.97;;;-139.68;37.65
10940;BME280;5522;42.696;23.494;2023-08-17T12:00:42;53934.22;;;-139.68;37.56
10940;BME280;5522;42.696;23.494;2023-08-17T12:03:13;53920.16;;;-139.68;36.04
10940;BME280;5522;42.696;23.494;2023-08-17T12:05:41;53900.06;;;-139.68;37.64
10940;BME280;5522;42.696;23.494;2023-08-17T12:08:10;53918.16;;;-139.68;38.99
10940;BME280;5522;42.696;23.494;2023-08-17T12:10:37;53877.94;;;-139.68;37.79
10940;BME280;5522;42.696;23.494;2023-08-17T12:13:04;53904.06;;;-139.68;39.21
10940;BME280;5522;42.696;23.494;2023-08-17T12:15:32;53900.06;;;-139.68;38.98
10940;BME280;5522;42.696;23.494;2023-08-17T12:18:00;53912.13;;;-139.68;40.70
10940;BME280;5522;42.696;23.494;2023-08-17T12:20:27;53900.06;;;-139.68;37.55
10940;BME280;5522;42.696;23.494;2023-08-17T12:22:54;53916.13;;;-139.68;38.57
10940;BME280;5522;42.696;23.494;2023-08-17T12:25:21;53916.13;;;-139.68;39.32
10940;BME280;5522;42.696;23.494;2023-08-17T12:27:48;53926.19;;;-139.68;37.12
10940;BME280;5522;42.696;23.494;2023-08-17T12:30:26;53904.06;;;-139.68;37.99
10940;BME280;5522;42.696;23.494;2023-08-17T12:32:53;53867.88;;;-139.68;38.33
10940;BME280;5522;42.696;23.494;2023-08-17T12:35:20;53871.91;;;-139.68;38.64
10940;BME280;5522;42.696;23.494;2023-08-17T12:37:49;53877.94;;;-139.68;39.19
10940;BME280;5522;42.696;23.494;2023-08-17T12:40:17;53896.03;;;-139.68;39.75
10940;BME280;5522;42.696;23.494;2023-08-17T12:42:44;53940.25;;;-139.68;40.48